sensor_id;sensor_type;location;lat;lon;timestamp;P1;durP1;ratioP1;P2;durP2;ratioP2
64029;SDS011;50277;52.064;4.492;2023-04-25T00:02:15;12.00;;;3.33;;
64029;SDS011;50277;52.064;4.492;2023-04-25T00:04:41;14.80;;;3.20;;
64029;SDS011;50277;52.064;4.492;2023-04-25T00:07:06;13.98;;;3.40;;
64029;SDS011;50277;52.064;4.492;2023-04-25T00:09:31;10.93;;;2.65;;
64029;SDS011;50277;52.064;4.492;2023-04-25T00:11:57;13.52;;;3.40;;
64029;SDS011;50277;52.064;4.492;2023-04-25T00:14:22;14.90;;;2.75;;
64029;SDS011;50277;52.064;4.492;2023-04-25T00:16:47;14.98;;;2.80;;
64029;SDS011;50277;52.064;4.492;2023-04-25T00:19:13;10.10;;;2.90;;
64029;SDS011;50277;52.064;4.492;2023-04-25T00:21:38;7.82;;;2.67;;
64029;SDS011;50277;52.064;4.492;2023-04-25T00:24:05;12.23;;;2.92;;
64029;SDS011;50277;52.064;4.492;2023-04-25T00:26:31;12.05;;;3.50;;
64029;SDS011;50277;52.064;4.492;2023-04-25T00:28:58;11.48;;;2.45;;
64029;SDS011;50277;52.064;4.492;2023-04-25T00:31:23;13.55;;;3.55;;
64029;SDS011;50277;52.064;4.492;2023-04-25T00:33:48;13.30;;;3.30;;
64029;SDS011;50277;52.064;4.492;2023-04-25T00:36:14;14.40;;;3.15;;
64029;SDS011;50277;52.064;4.492;2023-04-25T00:38:39;9.48;;;2.47;;
64029;SDS011;50277;52.064;4.492;2023-04-25T00:41:08;13.40;;;3.40;;
64029;SDS011;50277;52.064;4.492;2023-04-25T00:43:33;19.13;;;3.67;;
64029;SDS011;50277;52.064;4.492;2023-04-25T00:45:59;18.35;;;3.58;;
64029;SDS011;50277;52.064;4.492;2023-04-25T00:48:25;14.27;;;3.10;;
64029;SDS011;50277;52.064;4.492;2023-04-25T00:50:54;10.45;;;2.65;;
64029;SDS011;50277;52.064;4.492;2023-04-25T00:53:21;12.93;;;3.30;;
64029;SDS011;50277;52.064;4.492;2023-04-25T00:55:47;16.90;;;3.60;;
64029;SDS011;50277;52.064;4.492;2023-04-25T00:58:12;12.90;;;2.90;;
64029;SDS011;50277;52.064;4.492;2023-04-25T01:00:38;13.30;;;2.70;;
64029;SDS011;50277;52.064;4.492;2023-04-25T01:03:05;16.05;;;2.90;;
64029;SDS011;50277;52.064;4.492;2023-04-25T01:05:31;13.38;;;2.40;;
64029;SDS011;50277;52.064;4.492;2023-04-25T01:07:56;15.48;;;3.15;;
64029;SDS011;50277;52.064;4.492;2023-04-25T01:10:22;18.90;;;3.38;;
64029;SDS011;50277;52.064;4.492;2023-04-25T01:12:47;16.20;;;3.03;;
64029;SDS011;50277;52.064;4.492;2023-04-25T01:15:13;13.52;;;2.88;;
64029;SDS011;50277;52.064;4.492;2023-04-25T01:17:38;14.40;;;3.25;;
64029;SDS011;50277;52.064;4.492;2023-04-25T01:20:06;12.27;;;2.78;;
64029;SDS011;50277;52.064;4.492;2023-04-25T01:22:34;17.13;;;3.58;;
64029;SDS011;50277;52.064;4.492;2023-04-25T01:25:00;11.00;;;2.78;;
64029;SDS011;50277;52.064;4.492;2023-04-25T01:27:25;8.48;;;2.53;;
64029;SDS011;50277;52.064;4.492;2023-04-25T01:29:51;16.33;;;3.50;;
64029;SDS011;50277;52.064;4.492;2023-04-25T01:32:17;12.55;;;2.88;;
64029;SDS011;50277;52.064;4.492;2023-04-25T01:34:42;11.80;;;2.60;;
64029;SDS011;50277;52.064;4.492;2023-04-25T01:37:08;7.00;;;2.20;;
64029;SDS011;50277;52.064;4.492;2023-04-25T01:39:33;9.02;;;3.00;;
64029;SDS011;50277;52.064;4.492;2023-04-25T01:41:58;11.48;;;2.35;;
64029;SDS011;50277;52.064;4.492;2023-04-25T01:44:24;14.20;;;2.72;;
64029;SDS011;50277;52.064;4.492;2023-04-25T01:46:51;10.68;;;2.63;;
64029;SDS011;50277;52.064;4.492;2023-04-25T01:49:16;9.10;;;2.63;;
64029;SDS011;50277;52.064;4.492;2023-04-25T01:51:42;10.18;;;2.50;;
64029;SDS011;50277;52.064;4.492;2023-04-25T01:54:08;6.95;;;2.50;;
64029;SDS011;50277;52.064;4.492;2023-04-25T01:56:36;6.60;;;2.33;;
64029;SDS011;50277;52.064;4.492;2023-04-25T01:59:02;11.13;;;2.20;;
64029;SDS011;50277;52.064;4.492;2023-04-25T02:01:29;8.98;;;2.20;;
64029;SDS011;50277;52.064;4.492;2023-04-25T02:03:54;10.15;;;2.35;;
64029;SDS011;50277;52.064;4.492;2023-04-25T02:06:20;18.35;;;2.88;;
64029;SDS011;50277;52.064;4.492;2023-04-25T02:08:45;12.57;;;2.35;;
64029;SDS011;50277;52.064;4.492;2023-04-25T02:11:11;13.18;;;2.60;;
64029;SDS011;50277;52.064;4.492;2023-04-25T02:13:36;13.00;;;2.20;;
64029;SDS011;50277;52.064;4.492;2023-04-25T02:16:01;10.15;;;2.97;;
64029;SDS011;50277;52.064;4.492;2023-04-25T02:18:27;11.93;;;2.63;;
64029;SDS011;50277;52.064;4.492;2023-04-25T02:20:52;6.15;;;2.25;;
64029;SDS011;50277;52.064;4.492;2023-04-25T02:23:17;6.28;;;2.17;;
64029;SDS011;50277;52.064;4.492;2023-04-25T02:25:44;9.85;;;2.95;;
64029;SDS011;50277;52.064;4.492;2023-04-25T02:28:10;10.60;;;2.97;;
64029;SDS011;50277;52.064;4.492;2023-04-25T02:30:35;12.45;;;2.47;;
64029;SDS011;50277;52.064;4.492;2023-04-25T02:33:01;10.23;;;2.28;;
64029;SDS011;50277;52.064;4.492;2023-04-25T02:35:26;11.35;;;2.47;;
64029;SDS011;50277;52.064;4.492;2023-04-25T02:37:51;12.63;;;2.97;;
64029;SDS011;50277;52.064;4.492;2023-04-25T02:40:17;11.18;;;2.60;;
64029;SDS011;50277;52.064;4.492;2023-04-25T02:42:42;15.95;;;2.00;;
64029;SDS011;50277;52.064;4.492;2023-04-25T02:45:08;9.65;;;2.60;;
64029;SDS011;50277;52.064;4.492;2023-04-25T02:47:33;9.85;;;1.77;;
64029;SDS011;50277;52.064;4.492;2023-04-25T02:49:59;7.45;;;2.00;;
64029;SDS011;50277;52.064;4.492;2023-04-25T02:52:24;10.70;;;1.80;;
64029;SDS011;50277;52.064;4.492;2023-04-25T02:54:50;7.55;;;2.05;;
64029;SDS011;50277;52.064;4.492;2023-04-25T02:57:15;7.15;;;1.80;;
64029;SDS011;50277;52.064;4.492;2023-04-25T02:59:41;8.00;;;2.45;;
64029;SDS011;50277;52.064;4.492;2023-04-25T03:02:06;9.43;;;2.25;;
64029;SDS011;50277;52.064;4.492;2023-04-25T03:04:31;6.25;;;1.80;;
64029;SDS011;50277;52.064;4.492;2023-04-25T03:06:58;10.27;;;2.08;;
64029;SDS011;50277;52.064;4.492;2023-04-25T03:09:23;12.63;;;2.47;;
64029;SDS011;50277;52.064;4.492;2023-04-25T03:11:49;10.35;;;2.42;;
64029;SDS011;50277;52.064;4.492;2023-04-25T03:14:14;9.00;;;2.00;;
64029;SDS011;50277;52.064;4.492;2023-04-25T03:16:40;8.45;;;2.10;;
64029;SDS011;50277;52.064;4.492;2023-04-25T03:19:05;9.60;;;1.98;;
64029;SDS011;50277;52.064;4.492;2023-04-25T03:21:31;10.90;;;2.63;;
64029;SDS011;50277;52.064;4.492;2023-04-25T03:23:57;8.75;;;1.80;;
64029;SDS011;50277;52.064;4.492;2023-04-25T03:26:23;8.40;;;2.20;;
64029;SDS011;50277;52.064;4.492;2023-04-25T03:28:49;17.40;;;2.67;;
64029;SDS011;50277;52.064;4.492;2023-04-25T03:31:14;8.50;;;2.08;;
64029;SDS011;50277;52.064;4.492;2023-04-25T03:33:39;14.38;;;2.50;;
64029;SDS011;50277;52.064;4.492;2023-04-25T03:36:05;11.05;;;2.03;;
64029;SDS011;50277;52.064;4.492;2023-04-25T03:38:30;12.23;;;2.25;;
64029;SDS011;50277;52.064;4.492;2023-04-25T03:40:56;13.68;;;3.42;;
64029;SDS011;50277;52.064;4.492;2023-04-25T03:43:21;8.13;;;1.80;;
64029;SDS011;50277;52.064;4.492;2023-04-25T03:45:47;9.55;;;2.22;;
64029;SDS011;50277;52.064;4.492;2023-04-25T03:48:12;13.10;;;2.53;;
64029;SDS011;50277;52.064;4.492;2023-04-25T03:50:37;11.75;;;2.47;;
64029;SDS011;50277;52.064;4.492;2023-04-25T03:53:02;12.73;;;3.17;;
64029;SDS011;50277;52.064;4.492;2023-04-25T03:55:28;9.77;;;3.15;;
64029;SDS011;50277;52.064;4.492;2023-04-25T03:57:53;10.43;;;2.35;;
64029;SDS011;50277;52.064;4.492;2023-04-25T04:00:18;14.10;;;2.55;;
64029;SDS011;50277;52.064;4.492;2023-04-25T04:02:44;12.00;;;2.38;;
64029;SDS011;50277;52.064;4.492;2023-04-25T04:05:09;11.80;;;2.53;;
64029;SDS011;50277;52.064;4.492;2023-04-25T04:07:35;10.80;;;2.58;;
64029;SDS011;50277;52.064;4.492;2023-04-25T04:10:05;8.35;;;2.22;;
64029;SDS011;50277;52.064;4.492;2023-04-25T04:12:33;8.02;;;2.00;;
64029;SDS011;50277;52.064;4.492;2023-04-25T04:14:59;9.77;;;2.33;;
64029;SDS011;50277;52.064;4.492;2023-04-25T04:17:24;11.80;;;5.70;;
64029;SDS011;50277;52.064;4.492;2023-04-25T04:19:50;10.15;;;2.05;;
64029;SDS011;50277;52.064;4.492;2023-04-25T04:22:15;11.95;;;3.15;;
64029;SDS011;50277;52.064;4.492;2023-04-25T04:24:41;7.93;;;2.58;;
64029;SDS011;50277;52.064;4.492;2023-04-25T04:27:08;12.60;;;2.28;;
64029;SDS011;50277;52.064;4.492;2023-04-25T04:29:34;8.88;;;2.20;;
64029;SDS011;50277;52.064;4.492;2023-04-25T04:31:59;9.18;;;2.83;;
64029;SDS011;50277;52.064;4.492;2023-04-25T04:34:26;8.15;;;1.92;;
64029;SDS011;50277;52.064;4.492;2023-04-25T04:36:52;4.85;;;1.95;;
64029;SDS011;50277;52.064;4.492;2023-04-25T04:39:17;19.35;;;2.65;;
64029;SDS011;50277;52.064;4.492;2023-04-25T04:41:42;10.45;;;1.77;;
64029;SDS011;50277;52.064;4.492;2023-04-25T04:44:08;4.97;;;1.83;;
64029;SDS011;50277;52.064;4.492;2023-04-25T04:46:34;9.40;;;2.10;;
64029;SDS011;50277;52.064;4.492;2023-04-25T04:51:29;8.77;;;1.90;;
64029;SDS011;50277;52.064;4.492;2023-04-25T04:53:56;10.15;;;3.15;;
64029;SDS011;50277;52.064;4.492;2023-04-25T04:56:23;8.13;;;2.22;;
64029;SDS011;50277;52.064;4.492;2023-04-25T04:58:50;9.70;;;2.53;;
64029;SDS011;50277;52.064;4.492;2023-04-25T05:01:15;10.52;;;2.55;;
64029;SDS011;50277;52.064;4.492;2023-04-25T05:03:41;9.95;;;2.35;;
64029;SDS011;50277;52.064;4.492;2023-04-25T05:06:06;8.90;;;2.03;;
64029;SDS011;50277;52.064;4.492;2023-04-25T05:08:31;8.65;;;1.98;;
64029;SDS011;50277;52.064;4.492;2023-04-25T05:10:57;9.98;;;1.92;;
64029;SDS011;50277;52.064;4.492;2023-04-25T05:13:22;9.77;;;2.55;;
64029;SDS011;50277;52.064;4.492;2023-04-25T05:15:47;8.07;;;2.22;;
64029;SDS011;50277;52.064;4.492;2023-04-25T05:18:13;9.00;;;2.00;;
64029;SDS011;50277;52.064;4.492;2023-04-25T05:20:38;10.73;;;2.25;;
64029;SDS011;50277;52.064;4.492;2023-04-25T05:23:03;12.27;;;2.42;;
64029;SDS011;50277;52.064;4.492;2023-04-25T05:25:29;14.10;;;2.97;;
64029;SDS011;50277;52.064;4.492;2023-04-25T05:27:54;8.68;;;1.98;;
64029;SDS011;50277;52.064;4.492;2023-04-25T05:30:19;6.20;;;1.67;;
64029;SDS011;50277;52.064;4.492;2023-04-25T05:32:45;3.42;;;1.52;;
64029;SDS011;50277;52.064;4.492;2023-04-25T05:35:11;9.60;;;1.95;;
64029;SDS011;50277;52.064;4.492;2023-04-25T05:37:37;5.55;;;1.50;;
64029;SDS011;50277;52.064;4.492;2023-04-25T05:40:02;3.75;;;1.30;;
64029;SDS011;50277;52.064;4.492;2023-04-25T05:42:31;4.20;;;1.73;;
64029;SDS011;50277;52.064;4.492;2023-04-25T05:44:57;5.55;;;2.15;;
64029;SDS011;50277;52.064;4.492;2023-04-25T05:47:22;3.38;;;1.17;;
64029;SDS011;50277;52.064;4.492;2023-04-25T05:49:47;3.42;;;1.23;;
64029;SDS011;50277;52.064;4.492;2023-04-25T05:52:13;3.67;;;1.30;;
64029;SDS011;50277;52.064;4.492;2023-04-25T05:54:40;6.03;;;1.42;;
64029;SDS011;50277;52.064;4.492;2023-04-25T05:57:05;2.88;;;1.30;;
64029;SDS011;50277;52.064;4.492;2023-04-25T05:59:31;4.05;;;1.45;;
64029;SDS011;50277;52.064;4.492;2023-04-25T06:01:56;3.05;;;1.10;;
64029;SDS011;50277;52.064;4.492;2023-04-25T06:04:21;2.90;;;1.42;;
64029;SDS011;50277;52.064;4.492;2023-04-25T06:06:47;4.60;;;1.48;;
64029;SDS011;50277;52.064;4.492;2023-04-25T06:09:12;3.72;;;1.40;;
64029;SDS011;50277;52.064;4.492;2023-04-25T06:11:37;3.50;;;1.20;;
64029;SDS011;50277;52.064;4.492;2023-04-25T06:14:03;4.55;;;1.52;;
64029;SDS011;50277;52.064;4.492;2023-04-25T06:16:28;5.15;;;1.30;;
64029;SDS011;50277;52.064;4.492;2023-04-25T06:18:53;4.40;;;1.50;;
64029;SDS011;50277;52.064;4.492;2023-04-25T06:21:19;4.53;;;1.42;;
64029;SDS011;50277;52.064;4.492;2023-04-25T06:23:44;4.32;;;1.40;;
64029;SDS011;50277;52.064;4.492;2023-04-25T06:26:09;6.65;;;1.80;;
64029;SDS011;50277;52.064;4.492;2023-04-25T06:28:35;4.15;;;1.30;;
64029;SDS011;50277;52.064;4.492;2023-04-25T06:31:00;5.38;;;1.52;;
64029;SDS011;50277;52.064;4.492;2023-04-25T06:33:25;5.82;;;1.35;;
64029;SDS011;50277;52.064;4.492;2023-04-25T06:35:51;4.05;;;1.40;;
64029;SDS011;50277;52.064;4.492;2023-04-25T06:38:17;6.78;;;1.30;;
64029;SDS011;50277;52.064;4.492;2023-04-25T06:40:42;5.75;;;1.63;;
64029;SDS011;50277;52.064;4.492;2023-04-25T06:43:07;6.03;;;1.70;;
64029;SDS011;50277;52.064;4.492;2023-04-25T06:45:33;7.45;;;1.50;;
64029;SDS011;50277;52.064;4.492;2023-04-25T06:47:58;4.00;;;1.50;;
64029;SDS011;50277;52.064;4.492;2023-04-25T06:50:23;4.63;;;1.45;;
64029;SDS011;50277;52.064;4.492;2023-04-25T06:52:49;4.30;;;1.55;;
64029;SDS011;50277;52.064;4.492;2023-04-25T06:55:14;5.97;;;1.70;;
64029;SDS011;50277;52.064;4.492;2023-04-25T06:57:39;7.18;;;1.73;;
64029;SDS011;50277;52.064;4.492;2023-04-25T07:00:05;6.45;;;1.40;;
64029;SDS011;50277;52.064;4.492;2023-04-25T07:04:59;5.03;;;1.52;;
64029;SDS011;50277;52.064;4.492;2023-04-25T07:07:25;3.90;;;1.58;;
64029;SDS011;50277;52.064;4.492;2023-04-25T07:09:50;3.95;;;1.63;;
64029;SDS011;50277;52.064;4.492;2023-04-25T07:12:16;6.35;;;1.63;;
64029;SDS011;50277;52.064;4.492;2023-04-25T07:14:41;3.47;;;1.40;;
64029;SDS011;50277;52.064;4.492;2023-04-25T07:17:06;8.15;;;1.92;;
64029;SDS011;50277;52.064;4.492;2023-04-25T07:19:32;5.05;;;1.80;;
64029;SDS011;50277;52.064;4.492;2023-04-25T07:21:58;8.85;;;2.38;;
64029;SDS011;50277;52.064;4.492;2023-04-25T07:24:23;6.43;;;2.08;;
64029;SDS011;50277;52.064;4.492;2023-04-25T07:26:48;8.40;;;2.30;;
64029;SDS011;50277;52.064;4.492;2023-04-25T07:29:14;7.20;;;2.33;;
64029;SDS011;50277;52.064;4.492;2023-04-25T07:31:39;4.22;;;2.15;;
64029;SDS011;50277;52.064;4.492;2023-04-25T07:34:05;8.75;;;2.20;;
64029;SDS011;50277;52.064;4.492;2023-04-25T07:36:31;6.10;;;1.50;;
64029;SDS011;50277;52.064;4.492;2023-04-25T07:38:56;7.97;;;2.15;;
64029;SDS011;50277;52.064;4.492;2023-04-25T07:41:21;5.40;;;2.03;;
64029;SDS011;50277;52.064;4.492;2023-04-25T07:43:47;3.28;;;1.60;;
64029;SDS011;50277;52.064;4.492;2023-04-25T07:46:12;4.97;;;1.60;;
64029;SDS011;50277;52.064;4.492;2023-04-25T07:48:37;3.97;;;1.85;;
64029;SDS011;50277;52.064;4.492;2023-04-25T07:51:03;3.67;;;1.50;;
64029;SDS011;50277;52.064;4.492;2023-04-25T07:53:30;6.72;;;1.90;;
64029;SDS011;50277;52.064;4.492;2023-04-25T07:55:55;9.48;;;2.50;;
64029;SDS011;50277;52.064;4.492;2023-04-25T07:58:20;9.18;;;2.90;;
64029;SDS011;50277;52.064;4.492;2023-04-25T08:00:47;9.48;;;2.65;;
64029;SDS011;50277;52.064;4.492;2023-04-25T08:03:12;7.32;;;2.30;;
64029;SDS011;50277;52.064;4.492;2023-04-25T08:05:38;5.88;;;1.92;;
64029;SDS011;50277;52.064;4.492;2023-04-25T08:08:03;7.13;;;2.25;;
64029;SDS011;50277;52.064;4.492;2023-04-25T08:10:31;9.13;;;2.10;;
64029;SDS011;50277;52.064;4.492;2023-04-25T08:12:56;6.25;;;1.98;;
64029;SDS011;50277;52.064;4.492;2023-04-25T08:15:22;6.13;;;1.40;;
64029;SDS011;50277;52.064;4.492;2023-04-25T08:17:47;5.97;;;2.03;;
64029;SDS011;50277;52.064;4.492;2023-04-25T08:20:12;7.20;;;2.00;;
64029;SDS011;50277;52.064;4.492;2023-04-25T08:22:38;7.88;;;1.73;;
64029;SDS011;50277;52.064;4.492;2023-04-25T08:25:03;7.20;;;1.70;;
64029;SDS011;50277;52.064;4.492;2023-04-25T08:27:29;6.70;;;2.25;;
64029;SDS011;50277;52.064;4.492;2023-04-25T08:29:55;10.10;;;2.17;;
64029;SDS011;50277;52.064;4.492;2023-04-25T08:32:20;8.75;;;2.35;;
64029;SDS011;50277;52.064;4.492;2023-04-25T08:34:46;9.05;;;2.35;;
64029;SDS011;50277;52.064;4.492;2023-04-25T08:37:12;8.48;;;2.10;;
64029;SDS011;50277;52.064;4.492;2023-04-25T08:39:37;6.10;;;2.00;;
64029;SDS011;50277;52.064;4.492;2023-04-25T08:42:04;7.90;;;1.92;;
64029;SDS011;50277;52.064;4.492;2023-04-25T08:44:34;9.23;;;2.00;;
64029;SDS011;50277;52.064;4.492;2023-04-25T08:47:01;7.55;;;1.63;;
64029;SDS011;50277;52.064;4.492;2023-04-25T08:49:28;8.07;;;1.80;;
64029;SDS011;50277;52.064;4.492;2023-04-25T08:51:54;11.68;;;2.13;;
64029;SDS011;50277;52.064;4.492;2023-04-25T08:54:28;3.45;;;1.42;;
64029;SDS011;50277;52.064;4.492;2023-04-25T08:56:55;4.55;;;1.77;;
64029;SDS011;50277;52.064;4.492;2023-04-25T08:59:22;6.30;;;1.90;;
64029;SDS011;50277;52.064;4.492;2023-04-25T09:01:49;4.07;;;1.60;;
64029;SDS011;50277;52.064;4.492;2023-04-25T09:04:15;5.70;;;1.77;;
64029;SDS011;50277;52.064;4.492;2023-04-25T09:06:40;6.20;;;1.80;;
64029;SDS011;50277;52.064;4.492;2023-04-25T09:09:06;8.18;;;1.67;;
64029;SDS011;50277;52.064;4.492;2023-04-25T09:11:33;7.63;;;1.60;;
64029;SDS011;50277;52.064;4.492;2023-04-25T09:14:16;6.90;;;1.53;;
64029;SDS011;50277;52.064;4.492;2023-04-25T09:19:34;8.40;;;1.88;;
64029;SDS011;50277;52.064;4.492;2023-04-25T09:22:01;6.82;;;1.52;;
64029;SDS011;50277;52.064;4.492;2023-04-25T09:27:09;5.65;;;1.60;;
64029;SDS011;50277;52.064;4.492;2023-04-25T09:29:37;4.40;;;1.50;;
64029;SDS011;50277;52.064;4.492;2023-04-25T09:34:39;6.88;;;2.10;;
64029;SDS011;50277;52.064;4.492;2023-04-25T09:37:07;5.80;;;1.98;;
64029;SDS011;50277;52.064;4.492;2023-04-25T09:39:33;4.03;;;1.65;;
64029;SDS011;50277;52.064;4.492;2023-04-25T09:41:59;4.90;;;1.85;;
64029;SDS011;50277;52.064;4.492;2023-04-25T09:44:25;4.68;;;1.70;;
64029;SDS011;50277;52.064;4.492;2023-04-25T09:46:51;4.57;;;1.70;;
64029;SDS011;50277;52.064;4.492;2023-04-25T09:49:19;7.57;;;2.40;;
64029;SDS011;50277;52.064;4.492;2023-04-25T09:51:55;4.50;;;1.70;;
64029;SDS011;50277;52.064;4.492;2023-04-25T09:54:22;8.95;;;1.88;;
64029;SDS011;50277;52.064;4.492;2023-04-25T09:56:48;7.50;;;2.28;;
64029;SDS011;50277;52.064;4.492;2023-04-25T09:59:16;5.65;;;2.00;;
64029;SDS011;50277;52.064;4.492;2023-04-25T10:01:47;5.40;;;2.20;;
64029;SDS011;50277;52.064;4.492;2023-04-25T10:04:13;7.78;;;2.10;;
64029;SDS011;50277;52.064;4.492;2023-04-25T10:06:51;7.55;;;2.33;;
64029;SDS011;50277;52.064;4.492;2023-04-25T10:09:19;7.95;;;2.55;;
64029;SDS011;50277;52.064;4.492;2023-04-25T10:11:46;6.95;;;1.73;;
64029;SDS011;50277;52.064;4.492;2023-04-25T10:14:12;7.40;;;1.90;;
64029;SDS011;50277;52.064;4.492;2023-04-25T10:16:39;4.70;;;1.55;;
64029;SDS011;50277;52.064;4.492;2023-04-25T10:19:05;6.03;;;1.95;;
64029;SDS011;50277;52.064;4.492;2023-04-25T10:21:31;9.77;;;2.13;;
64029;SDS011;50277;52.064;4.492;2023-04-25T10:23:56;6.50;;;1.65;;
64029;SDS011;50277;52.064;4.492;2023-04-25T10:26:22;8.35;;;1.70;;
64029;SDS011;50277;52.064;4.492;2023-04-25T10:28:55;6.78;;;1.33;;
64029;SDS011;50277;52.064;4.492;2023-04-25T10:31:22;3.97;;;1.45;;
64029;SDS011;50277;52.064;4.492;2023-04-25T10:33:47;5.63;;;1.55;;
64029;SDS011;50277;52.064;4.492;2023-04-25T10:36:14;4.70;;;1.90;;
64029;SDS011;50277;52.064;4.492;2023-04-25T10:38:44;3.78;;;1.20;;
64029;SDS011;50277;52.064;4.492;2023-04-25T10:41:10;4.50;;;1.48;;
64029;SDS011;50277;52.064;4.492;2023-04-25T10:43:37;2.67;;;1.40;;
64029;SDS011;50277;52.064;4.492;2023-04-25T10:46:13;9.30;;;1.50;;
64029;SDS011;50277;52.064;4.492;2023-04-25T10:48:45;3.38;;;1.40;;
64029;SDS011;50277;52.064;4.492;2023-04-25T10:51:24;4.82;;;1.73;;
64029;SDS011;50277;52.064;4.492;2023-04-25T10:56:20;9.80;;;1.73;;
64029;SDS011;50277;52.064;4.492;2023-04-25T10:58:48;6.43;;;1.67;;
64029;SDS011;50277;52.064;4.492;2023-04-25T11:01:15;6.80;;;1.95;;
64029;SDS011;50277;52.064;4.492;2023-04-25T11:03:44;6.90;;;1.77;;
64029;SDS011;50277;52.064;4.492;2023-04-25T11:06:20;5.82;;;2.00;;
64029;SDS011;50277;52.064;4.492;2023-04-25T11:08:49;7.00;;;1.87;;
64029;SDS011;50277;52.064;4.492;2023-04-25T11:11:16;7.47;;;1.70;;
64029;SDS011;50277;52.064;4.492;2023-04-25T11:13:42;6.63;;;1.75;;
64029;SDS011;50277;52.064;4.492;2023-04-25T11:16:07;2.95;;;1.30;;
64029;SDS011;50277;52.064;4.492;2023-04-25T11:18:33;7.15;;;1.80;;
64029;SDS011;50277;52.064;4.492;2023-04-25T11:20:59;4.93;;;1.85;;
64029;SDS011;50277;52.064;4.492;2023-04-25T11:23:24;3.17;;;1.50;;
64029;SDS011;50277;52.064;4.492;2023-04-25T11:25:51;6.32;;;1.38;;
64029;SDS011;50277;52.064;4.492;2023-04-25T11:28:20;8.45;;;1.77;;
64029;SDS011;50277;52.064;4.492;2023-04-25T11:30:49;6.40;;;1.50;;
64029;SDS011;50277;52.064;4.492;2023-04-25T11:33:15;9.18;;;1.60;;
64029;SDS011;50277;52.064;4.492;2023-04-25T11:35:41;3.80;;;1.30;;
64029;SDS011;50277;52.064;4.492;2023-04-25T11:38:06;8.10;;;1.80;;
64029;SDS011;50277;52.064;4.492;2023-04-25T11:40:32;5.18;;;1.40;;
64029;SDS011;50277;52.064;4.492;2023-04-25T11:42:59;4.50;;;1.60;;
64029;SDS011;50277;52.064;4.492;2023-04-25T11:45:25;5.67;;;2.00;;
64029;SDS011;50277;52.064;4.492;2023-04-25T11:47:51;6.97;;;1.40;;
64029;SDS011;50277;52.064;4.492;2023-04-25T11:50:17;5.93;;;1.77;;
64029;SDS011;50277;52.064;4.492;2023-04-25T11:52:43;4.45;;;1.77;;
64029;SDS011;50277;52.064;4.492;2023-04-25T11:55:12;5.95;;;1.52;;
64029;SDS011;50277;52.064;4.492;2023-04-25T11:57:42;4.13;;;1.40;;
64029;SDS011;50277;52.064;4.492;2023-04-25T12:02:41;6.50;;;1.80;;
64029;SDS011;50277;52.064;4.492;2023-04-25T12:05:07;3.70;;;1.50;;
64029;SDS011;50277;52.064;4.492;2023-04-25T12:07:33;8.20;;;1.90;;
64029;SDS011;50277;52.064;4.492;2023-04-25T12:09:59;5.03;;;1.30;;
64029;SDS011;50277;52.064;4.492;2023-04-25T12:12:28;5.75;;;1.10;;
64029;SDS011;50277;52.064;4.492;2023-04-25T12:15:07;5.00;;;1.25;;
64029;SDS011;50277;52.064;4.492;2023-04-25T12:17:49;2.88;;;1.20;;
64029;SDS011;50277;52.064;4.492;2023-04-25T12:20:17;5.07;;;1.30;;
64029;SDS011;50277;52.064;4.492;2023-04-25T12:22:45;9.80;;;1.60;;
64029;SDS011;50277;52.064;4.492;2023-04-25T12:25:56;4.15;;;1.45;;
64029;SDS011;50277;52.064;4.492;2023-04-25T12:28:22;5.40;;;2.00;;
64029;SDS011;50277;52.064;4.492;2023-04-25T12:30:59;6.63;;;1.80;;
64029;SDS011;50277;52.064;4.492;2023-04-25T12:33:29;6.20;;;1.70;;
64029;SDS011;50277;52.064;4.492;2023-04-25T12:35:59;8.13;;;1.75;;
64029;SDS011;50277;52.064;4.492;2023-04-25T12:38:28;11.65;;;1.92;;
64029;SDS011;50277;52.064;4.492;2023-04-25T12:40:56;6.95;;;1.95;;
64029;SDS011;50277;52.064;4.492;2023-04-25T12:43:22;9.63;;;2.33;;
64029;SDS011;50277;52.064;4.492;2023-04-25T12:45:48;7.93;;;2.13;;
64029;SDS011;50277;52.064;4.492;2023-04-25T12:48:15;3.20;;;1.58;;
64029;SDS011;50277;52.064;4.492;2023-04-25T12:50:40;10.25;;;1.70;;
64029;SDS011;50277;52.064;4.492;2023-04-25T12:53:06;8.63;;;1.73;;
64029;SDS011;50277;52.064;4.492;2023-04-25T12:55:31;11.63;;;2.35;;
64029;SDS011;50277;52.064;4.492;2023-04-25T12:57:56;4.88;;;2.03;;
64029;SDS011;50277;52.064;4.492;2023-04-25T13:00:22;5.90;;;1.33;;
64029;SDS011;50277;52.064;4.492;2023-04-25T13:02:47;3.95;;;1.15;;
64029;SDS011;50277;52.064;4.492;2023-04-25T13:05:12;10.40;;;1.60;;
64029;SDS011;50277;52.064;4.492;2023-04-25T13:07:38;5.03;;;1.30;;
64029;SDS011;50277;52.064;4.492;2023-04-25T13:10:03;6.78;;;1.67;;
64029;SDS011;50277;52.064;4.492;2023-04-25T13:12:30;6.25;;;2.05;;
64029;SDS011;50277;52.064;4.492;2023-04-25T13:14:56;5.35;;;1.70;;
64029;SDS011;50277;52.064;4.492;2023-04-25T13:17:21;4.53;;;1.80;;
64029;SDS011;50277;52.064;4.492;2023-04-25T13:19:46;9.18;;;1.50;;
64029;SDS011;50277;52.064;4.492;2023-04-25T13:22:11;7.88;;;1.77;;
64029;SDS011;50277;52.064;4.492;2023-04-25T13:24:37;5.20;;;1.60;;
64029;SDS011;50277;52.064;4.492;2023-04-25T13:27:02;5.40;;;1.67;;
64029;SDS011;50277;52.064;4.492;2023-04-25T13:29:28;4.35;;;1.40;;
64029;SDS011;50277;52.064;4.492;2023-04-25T13:31:53;7.47;;;1.80;;
64029;SDS011;50277;52.064;4.492;2023-04-25T13:34:19;9.10;;;2.47;;
64029;SDS011;50277;52.064;4.492;2023-04-25T13:36:44;7.85;;;1.55;;
64029;SDS011;50277;52.064;4.492;2023-04-25T13:39:10;5.32;;;1.30;;
64029;SDS011;50277;52.064;4.492;2023-04-25T13:41:36;6.55;;;1.88;;
64029;SDS011;50277;52.064;4.492;2023-04-25T13:44:01;10.25;;;1.65;;
64029;SDS011;50277;52.064;4.492;2023-04-25T13:46:27;4.10;;;1.00;;
64029;SDS011;50277;52.064;4.492;2023-04-25T13:48:52;4.95;;;1.48;;
64029;SDS011;50277;52.064;4.492;2023-04-25T13:51:18;4.72;;;1.60;;
64029;SDS011;50277;52.064;4.492;2023-04-25T13:53:43;5.60;;;1.58;;
64029;SDS011;50277;52.064;4.492;2023-04-25T13:56:09;10.00;;;1.67;;
64029;SDS011;50277;52.064;4.492;2023-04-25T13:58:36;5.45;;;1.35;;
64029;SDS011;50277;52.064;4.492;2023-04-25T14:01:01;9.73;;;1.58;;
64029;SDS011;50277;52.064;4.492;2023-04-25T14:03:28;6.18;;;1.50;;
64029;SDS011;50277;52.064;4.492;2023-04-25T14:05:53;8.00;;;2.05;;
64029;SDS011;50277;52.064;4.492;2023-04-25T14:08:18;2.88;;;1.30;;
64029;SDS011;50277;52.064;4.492;2023-04-25T14:10:44;8.18;;;1.70;;
64029;SDS011;50277;52.064;4.492;2023-04-25T14:13:10;8.32;;;1.77;;
64029;SDS011;50277;52.064;4.492;2023-04-25T14:15:36;7.57;;;1.50;;
64029;SDS011;50277;52.064;4.492;2023-04-25T14:18:01;9.65;;;1.60;;
64029;SDS011;50277;52.064;4.492;2023-04-25T14:20:27;6.15;;;1.52;;
64029;SDS011;50277;52.064;4.492;2023-04-25T14:22:52;5.95;;;1.38;;
64029;SDS011;50277;52.064;4.492;2023-04-25T14:25:19;5.60;;;1.13;;
64029;SDS011;50277;52.064;4.492;2023-04-25T14:27:45;3.85;;;1.10;;
64029;SDS011;50277;52.064;4.492;2023-04-25T14:30:14;6.68;;;1.25;;
64029;SDS011;50277;52.064;4.492;2023-04-25T14:32:40;5.78;;;1.60;;
64029;SDS011;50277;52.064;4.492;2023-04-25T14:35:05;3.55;;;1.30;;
64029;SDS011;50277;52.064;4.492;2023-04-25T14:37:32;7.07;;;1.58;;
64029;SDS011;50277;52.064;4.492;2023-04-25T14:39:57;7.93;;;1.67;;
64029;SDS011;50277;52.064;4.492;2023-04-25T14:42:22;5.70;;;1.63;;
64029;SDS011;50277;52.064;4.492;2023-04-25T14:44:48;5.45;;;1.52;;
64029;SDS011;50277;52.064;4.492;2023-04-25T14:47:13;4.10;;;1.73;;
64029;SDS011;50277;52.064;4.492;2023-04-25T14:49:40;4.40;;;1.60;;
64029;SDS011;50277;52.064;4.492;2023-04-25T14:52:05;7.85;;;1.92;;
64029;SDS011;50277;52.064;4.492;2023-04-25T14:54:31;6.85;;;1.63;;
64029;SDS011;50277;52.064;4.492;2023-04-25T14:56:57;10.85;;;1.80;;